Aurora, SD

8:21 PM CST on December 25, 2014 (GMT -0600)
Neighborhood | Change Station
CLOSE
Current Station
Personal Weather Station
Location: Brookings, SD
Elevation: 1627 ft
Nearby Weather Stations

Elev 1627 ft 44.29 °N, 96.78 °W | Updated 3 minutes ago

Overcast
Overcast
28.2 °F
Feels Like 28 °F
N
1.1
Wind Variable Wind from NNW
Gusts 3.0 mph

Today
High -- | Low -- °F
--% Chance of Precip.
Yesterday
High -- | Low -- °F
Precip. -- in
8:01 AM 4:52 PM
Waxing Crescent, 21% visible
Pressure 29.82 in
Visibility 8.0 miles
Clouds Overcast 800 ft
Windchill 28 °F
Dew Point 26 °F
Humidity 92%
Rainfall 0.00 in
Snow Depth Not available.
UV 0.0 out of 12
Pollen .10 out of 12
Air Quality Not available.
Flu Activity Not available.
METAR KMDS 260210Z AUTO 03015KT 8SM -RA OVC008 M03/M03 A2982 RMK AO2

More Conditions Fewer Conditions

Pressure 29.82 in
Visibility 8.0 miles
Clouds Overcast 800 ft
Windchill 28 °F
Dew Point 26 °F
Humidity 92%
Rainfall 0.00 in
Snow Depth Not available.
UV 0.0 out of 12
Pollen .10 out of 12
Air Quality Not available.
Flu Activity Not available.
METAR KMDS 260210Z AUTO 03015KT 8SM -RA OVC008 M03/M03 A2982 RMK AO2

More Conditions Fewer Conditions

10-Day Weather Forecast

Almanac

Astronomy

Dec. 25, 2014 Rise Set
Actual Time
Civil Twilight
Nautical Twilight
Astronomical Twilight
Moon
Length of Visible Light
Length of Day
Tomorrow will be .
, % of the Moon is Illuminated

Today's Extremes

State Highs State Lows

Community

WunderPhotos

Upload Photos

1,780,507 photos uploaded!

WunderBlogs® & News

Nearby

Air Quality

  Air Quality AQ Index Pollutant
Not available.

Snow Depth

Station Depth Elevation

Earthquake Activity

City Distance Mag. Time & Date
Minimum magnitude displayed is 2.5.

Coastal Water Temperatures

Place Temperature

Nearby Weather Stations